LiveATC.Net - Listen to live air traffic control over the Internet! Contact LiveATC.net for advertising information


ICAO: LSGS  IATA: SIR   Airport: Sion International Airport
City: Sion
Country: Switzerland   Continent: Europe
LSGS METAR Weather: LSGS 291750Z VRB01KT 7000 -RA FEW025 BKN040 OVC050 10/08 Q1015
LSGS Flight Activity (FlightAware)
LSGS Gnd/Twr/App
Feed Status: DOWN
Last heard on: 2015-03-28 17:43:03 (1 days 12 hours 14 minutes ago)
LSGS Gnd/Twr/App Audio Archives
FacilityFrequency
Alpine Jet Service Handling131.675
Sion Airport Handling131.475
Sion Approach (IFR ARR MIL OFF)126.825
Sion Ground121.700
Sion Tower118.275

Geneva Live Feed Web Site

NOTICE

Unauthorized use prohibited. See LiveATC.net Terms of Service


Find LiveATC Audio Streams


Airport/ARTCC Code

Frequency
(e.g., 124.400, 128.75)
Site-wide search

Browse LiveATC Feeds
LiveATC Coverage Map
Top 50 LiveATC Feeds
Bad Weather Areas

LiveATC FAQ
Offer a LiveATC Feed
Contact LiveATC.net
Press Inquiries

LiveATC on iPhone
LiveATC on Android

LiveATC Mobile
(Mobile browser)

ATC Audio Archives
Interesting Recordings

LiveATC Forums


Home Page
About LiveATC.net
Make a Donation
LiveATC Bookstore

Terms of Use
Privacy Policy

ATC/Radar Sites
U.S. ARTCC Freqs
Canadian Air Freqs

AIRMETs/SIGMETs

FAA Airport Status
Nat'l Airspace Status
Arrival Demand Charts


Server Software By:
Icecast.org
Liquidsoap

Please make a donation to help us keep growing!